createdAt,value
2018-01-10T00:02:22.332Z,10.35
2018-01-10T00:04:50.504Z,11.15
2018-01-10T00:07:18.668Z,13.10
2018-01-10T00:09:46.832Z,15.93
2018-01-10T00:12:16.867Z,16.05
2018-01-10T00:14:45.014Z,15.05
2018-01-10T00:17:14.061Z,14.30
2018-01-10T00:19:42.230Z,12.32
2018-01-10T00:22:12.452Z,9.73
2018-01-10T00:24:40.605Z,10.13
2018-01-10T00:27:08.754Z,9.18
2018-01-10T00:29:38.479Z,10.85
2018-01-10T00:32:07.091Z,9.20
2018-01-10T00:34:35.234Z,7.87
2018-01-10T00:37:03.396Z,10.18
2018-01-10T00:39:32.342Z,10.10
2018-01-10T00:42:01.522Z,10.77
2018-01-10T00:44:29.682Z,9.05
2018-01-10T00:46:57.857Z,9.57
2018-01-10T00:49:26.019Z,10.13
2018-01-10T00:51:56.047Z,9.50
2018-01-10T00:54:24.220Z,9.10
2018-01-10T00:56:52.355Z,11.02
2018-01-10T00:59:20.518Z,10.05
2018-01-10T01:01:50.382Z,8.00
2018-01-10T01:04:18.546Z,8.23
2018-01-10T01:06:47.471Z,9.25
2018-01-10T01:09:15.610Z,8.25
2018-01-10T01:11:45.537Z,9.82
2018-01-10T01:14:13.698Z,9.45
2018-01-10T01:16:41.869Z,9.63
2018-01-10T01:19:11.359Z,10.25
2018-01-10T01:21:41.518Z,7.55
2018-01-10T01:24:09.908Z,11.02
2018-01-10T01:26:38.128Z,10.25
2018-01-10T01:29:06.300Z,12.05
2018-01-10T01:31:35.433Z,11.35
2018-01-10T01:34:03.591Z,8.80
2018-01-10T01:36:32.518Z,12.23
2018-01-10T01:39:00.677Z,10.95
2018-01-10T01:41:32.636Z,10.95
2018-01-10T01:44:00.818Z,12.40
2018-01-10T01:46:29.860Z,11.07
2018-01-10T01:48:58.017Z,9.93
2018-01-10T01:51:27.188Z,12.60
2018-01-10T01:53:55.358Z,11.50
2018-01-10T01:56:23.523Z,10.15
2018-01-10T01:58:51.920Z,9.73
2018-01-10T02:01:23.969Z,10.57
2018-01-10T02:03:52.261Z,11.63
2018-01-10T02:06:20.423Z,11.23
2018-01-10T02:08:48.571Z,9.52
2018-01-10T02:11:18.726Z,10.38
2018-01-10T02:13:46.897Z,10.18
2018-01-10T02:16:15.042Z,10.02
2018-01-10T02:18:43.995Z,10.38
2018-01-10T02:21:12.258Z,10.18
2018-01-10T02:23:40.409Z,10.35
2018-01-10T02:26:08.586Z,11.60
2018-01-10T02:28:36.760Z,9.82
2018-01-10T02:31:05.972Z,12.27
2018-01-10T02:33:34.149Z,11.57
2018-01-10T02:36:02.366Z,11.88
2018-01-10T02:38:30.800Z,12.48
2018-01-10T02:40:59.869Z,9.70
2018-01-10T02:43:28.046Z,10.40
2018-01-10T02:45:56.209Z,10.30
2018-01-10T02:48:25.133Z,10.95
2018-01-10T02:50:55.448Z,10.82
2018-01-10T02:53:23.628Z,12.45
2018-01-10T02:55:51.802Z,12.85
2018-01-10T02:58:20.034Z,11.23
2018-01-10T03:00:48.194Z,10.98
2018-01-10T03:03:16.349Z,10.65
2018-01-10T03:05:44.512Z,11.02
2018-01-10T03:08:12.678Z,11.30
2018-01-10T03:10:40.834Z,10.68
2018-01-10T03:13:09.005Z,10.70
2018-01-10T03:15:37.165Z,10.18
2018-01-10T03:18:05.320Z,10.80
2018-01-10T03:20:33.479Z,11.10
2018-01-10T03:23:01.637Z,11.45
2018-01-10T03:25:29.792Z,12.32
2018-01-10T03:27:58.040Z,11.90
2018-01-10T03:30:27.202Z,12.25
2018-01-10T03:32:55.346Z,11.63
2018-01-10T03:35:24.725Z,11.55
2018-01-10T03:37:52.872Z,11.05
2018-01-10T03:40:21.852Z,11.45
2018-01-10T03:42:50.044Z,11.25
2018-01-10T03:45:18.976Z,11.65
2018-01-10T03:47:47.147Z,10.25
2018-01-10T03:50:16.131Z,13.43
2018-01-10T03:52:44.304Z,13.55
2018-01-10T03:55:12.471Z,11.18
2018-01-10T03:57:40.643Z,12.02
2018-01-10T04:00:08.821Z,9.93
2018-01-10T04:02:37.647Z,11.38
2018-01-10T04:05:05.809Z,12.95
2018-01-10T04:07:33.985Z,10.98
2018-01-10T04:10:02.356Z,10.82
2018-01-10T04:12:31.674Z,11.68
2018-01-10T04:15:00.121Z,9.32
2018-01-10T04:17:28.326Z,11.45
2018-01-10T04:19:57.404Z,11.30
2018-01-10T04:22:27.396Z,9.60
2018-01-10T04:24:56.209Z,10.40
2018-01-10T04:27:24.388Z,11.23
2018-01-10T04:29:52.585Z,10.73
2018-01-10T04:32:22.137Z,9.93
2018-01-10T04:34:51.118Z,11.25
2018-01-10T04:37:20.104Z,12.05
2018-01-10T04:39:48.261Z,11.20
2018-01-10T04:42:17.337Z,10.63
2018-01-10T04:44:45.488Z,10.88
2018-01-10T04:47:15.845Z,13.75
2018-01-10T04:49:44.921Z,12.60
2018-01-10T04:52:17.764Z,14.65
2018-01-10T04:54:54.360Z,12.10
2018-01-10T04:57:27.262Z,12.60
2018-01-10T04:59:56.157Z,10.10
2018-01-10T05:02:26.488Z,12.15
2018-01-10T05:04:54.941Z,11.60
2018-01-10T05:07:23.137Z,12.48
2018-01-10T05:09:51.556Z,12.15
2018-01-10T05:12:21.829Z,11.60
2018-01-10T05:14:50.045Z,10.60
2018-01-10T05:17:18.466Z,10.55
2018-01-10T05:19:52.387Z,12.88
2018-01-10T05:22:21.711Z,12.63
2018-01-10T05:24:56.324Z,11.07
2018-01-10T05:27:24.578Z,11.60
2018-01-10T05:29:52.751Z,11.52
2018-01-10T05:32:20.982Z,11.18
2018-01-10T05:34:49.152Z,13.88
2018-01-10T05:37:18.080Z,11.93
2018-01-10T05:39:48.140Z,10.95
2018-01-10T05:42:18.802Z,11.88
2018-01-10T05:44:47.544Z,11.70
2018-01-10T05:47:16.364Z,13.27
2018-01-10T05:49:44.618Z,12.13
2018-01-10T05:52:18.183Z,12.27
2018-01-10T05:54:47.978Z,13.00
2018-01-10T05:57:16.489Z,12.48
2018-01-10T05:59:44.651Z,13.10
2018-01-10T06:02:13.974Z,12.32
2018-01-10T06:04:42.118Z,15.00
2018-01-10T06:07:12.994Z,13.43
2018-01-10T06:09:42.256Z,14.25
2018-01-10T06:12:12.827Z,14.38
2018-01-10T06:14:41.965Z,14.20
2018-01-10T06:17:10.609Z,12.93
2018-01-10T06:19:39.453Z,14.90
2018-01-10T06:22:09.257Z,17.33
2018-01-10T06:24:38.480Z,16.20
2018-01-10T06:27:06.691Z,19.20
2018-01-10T06:29:34.877Z,18.20
2018-01-10T06:32:04.130Z,15.55
2018-01-10T06:34:32.288Z,15.77
2018-01-10T06:37:01.405Z,15.43
2018-01-10T06:39:29.554Z,15.50
2018-01-10T06:41:58.570Z,15.77
2018-01-10T06:44:27.606Z,14.90
2018-01-10T06:46:55.797Z,16.60
2018-01-10T06:49:23.991Z,14.20
2018-01-10T06:51:53.242Z,17.08
2018-01-10T06:54:21.452Z,14.02
2018-01-10T06:56:49.618Z,15.68
2018-01-10T06:59:18.665Z,13.35
2018-01-10T07:01:51.456Z,14.77
2018-01-10T07:04:19.632Z,14.38
2018-01-10T07:06:47.802Z,15.50
2018-01-10T07:09:15.963Z,14.87
2018-01-10T07:11:45.443Z,12.75
2018-01-10T07:14:13.850Z,12.30
2018-01-10T07:16:42.045Z,11.95
2018-01-10T07:19:10.197Z,19.90
2018-01-10T07:21:39.290Z,16.35
2018-01-10T07:24:08.502Z,12.37
2018-01-10T07:26:37.609Z,12.50
2018-01-10T07:29:06.902Z,17.23
2018-01-10T07:31:35.111Z,14.38
2018-01-10T07:34:05.330Z,12.80
2018-01-10T07:36:34.078Z,14.05
2018-01-10T07:39:03.319Z,12.70
2018-01-10T07:41:32.338Z,14.73
2018-01-10T07:44:02.233Z,14.20
2018-01-10T07:46:30.447Z,12.70
2018-01-10T07:48:59.943Z,13.40
2018-01-10T07:51:32.113Z,15.68
2018-01-10T07:54:02.481Z,14.48
2018-01-10T07:56:30.655Z,12.70
2018-01-10T07:58:58.816Z,13.73
2018-01-10T08:01:28.104Z,15.80
2018-01-10T08:03:56.260Z,18.52
2018-01-10T08:06:25.174Z,15.25
2018-01-10T08:08:53.356Z,16.00
2018-01-10T08:11:21.617Z,15.43
2018-01-10T08:13:49.778Z,15.98
2018-01-10T08:16:18.719Z,16.05
2018-01-10T08:18:46.893Z,14.90
2018-01-10T08:21:15.134Z,13.95
2018-01-10T08:23:43.294Z,14.43
2018-01-10T08:26:11.461Z,14.45
2018-01-10T08:28:40.390Z,14.10
2018-01-10T08:31:08.700Z,14.63
2018-01-10T08:33:36.837Z,13.60
2018-01-10T08:36:05.013Z,14.73
2018-01-10T08:38:34.191Z,16.20
2018-01-10T08:41:02.420Z,18.58
2018-01-10T08:43:30.594Z,15.23
2018-01-10T08:45:58.745Z,17.48
2018-01-10T08:48:26.907Z,16.27
2018-01-10T08:50:55.085Z,17.95
2018-01-10T08:53:23.272Z,29.50
2018-01-10T08:55:51.428Z,29.35
2018-01-10T08:58:19.601Z,26.55
2018-01-10T09:00:48.791Z,27.58
2018-01-10T09:03:17.029Z,21.20
2018-01-10T09:05:45.187Z,21.12
2018-01-10T09:08:13.358Z,17.98
2018-01-10T09:10:41.512Z,17.75
2018-01-10T09:13:09.688Z,19.92
2018-01-10T09:15:37.859Z,18.67
2018-01-10T09:18:06.042Z,20.45
2018-01-10T09:20:34.191Z,21.80
2018-01-10T09:23:02.607Z,24.55
2018-01-10T09:25:30.758Z,24.52
2018-01-10T09:27:58.916Z,25.12
2018-01-10T09:30:27.091Z,25.42
2018-01-10T09:32:55.524Z,24.35
2018-01-10T09:35:23.689Z,24.98
2018-01-10T09:37:51.860Z,23.50
2018-01-10T09:40:20.021Z,25.00
2018-01-10T09:42:48.181Z,25.55
2018-01-10T09:45:16.656Z,25.05
2018-01-10T09:47:44.811Z,23.05
2018-01-10T09:50:13.788Z,23.05
2018-01-10T09:52:49.437Z,26.25
2018-01-10T09:55:18.363Z,22.13
2018-01-10T09:57:46.529Z,23.62
2018-01-10T10:00:14.697Z,23.98
2018-01-10T10:02:43.017Z,25.40
2018-01-10T10:05:11.189Z,27.70
2018-01-10T10:07:39.438Z,26.35
2018-01-10T10:10:09.791Z,22.83
2018-01-10T10:12:38.830Z,24.73
2018-01-10T10:15:07.053Z,21.70
2018-01-10T10:17:35.218Z,20.70
2018-01-10T10:20:03.377Z,19.02
2018-01-10T10:22:31.547Z,22.23
2018-01-10T10:24:59.693Z,17.58
2018-01-10T10:27:28.611Z,12.10
2018-01-10T10:29:57.037Z,7.78
2018-01-10T10:32:26.186Z,12.27
2018-01-10T10:34:55.051Z,6.32
2018-01-10T10:37:23.982Z,14.40
2018-01-10T10:39:52.672Z,11.57
2018-01-10T10:42:21.829Z,12.65
2018-01-10T10:44:49.993Z,8.55
2018-01-10T10:47:19.587Z,10.40
2018-01-10T10:49:47.744Z,5.45
2018-01-10T10:52:18.016Z,6.40
2018-01-10T10:54:46.217Z,4.32
2018-01-10T10:57:14.366Z,5.03
2018-01-10T10:59:42.530Z,5.10
2018-01-10T11:02:12.827Z,5.00
2018-01-10T11:04:40.981Z,5.30
2018-01-10T11:07:09.423Z,5.70
2018-01-10T11:09:38.272Z,4.60
2018-01-10T11:12:08.953Z,4.68
2018-01-10T11:14:37.561Z,4.75
2018-01-10T11:17:05.729Z,4.50
2018-01-10T11:19:33.884Z,4.25
2018-01-10T11:22:03.068Z,4.50
2018-01-10T11:24:31.217Z,4.93
2018-01-10T11:27:00.162Z,4.05
2018-01-10T11:29:28.361Z,3.92
2018-01-10T11:31:57.607Z,3.97
2018-01-10T11:34:26.530Z,3.55
2018-01-10T11:36:54.700Z,4.80
2018-01-10T11:39:22.843Z,4.18
2018-01-10T11:41:51.109Z,3.97
2018-01-10T11:44:20.034Z,3.95
2018-01-10T11:46:48.204Z,3.33
2018-01-10T11:49:16.358Z,3.72
2018-01-10T11:51:44.640Z,4.20
2018-01-10T11:54:12.799Z,3.97
2018-01-10T11:56:41.713Z,4.65
2018-01-10T11:59:09.867Z,3.78
2018-01-10T12:01:38.558Z,3.40
2018-01-10T12:04:07.480Z,4.12
2018-01-10T12:06:35.644Z,4.12
2018-01-10T12:09:03.792Z,4.20
2018-01-10T12:11:32.744Z,4.00
2018-01-10T12:14:00.882Z,3.45
2018-01-10T12:16:29.086Z,4.05
2018-01-10T12:18:57.244Z,4.62
2018-01-10T12:21:25.388Z,5.32
2018-01-10T12:23:53.585Z,3.45
2018-01-10T12:26:21.752Z,4.70
2018-01-10T12:28:49.900Z,4.90
2018-01-10T12:31:18.898Z,4.57
2018-01-10T12:33:47.043Z,3.58
2018-01-10T12:36:15.198Z,3.40
2018-01-10T12:38:45.714Z,3.22
2018-01-10T12:41:15.328Z,3.55
2018-01-10T12:43:43.736Z,3.15
2018-01-10T12:46:12.210Z,3.35
2018-01-10T12:48:40.412Z,3.35
2018-01-10T12:51:09.664Z,3.15
2018-01-10T12:53:38.740Z,3.95
2018-01-10T12:56:07.236Z,3.95
2018-01-10T12:58:35.404Z,4.22
2018-01-10T13:01:05.018Z,3.30
2018-01-10T13:03:33.173Z,4.12
2018-01-10T13:06:01.337Z,3.40
2018-01-10T13:08:29.508Z,4.20
2018-01-10T13:10:58.691Z,3.40
2018-01-10T13:13:27.642Z,3.80
2018-01-10T13:16:01.082Z,3.37
2018-01-10T13:18:29.997Z,4.10
2018-01-10T13:20:58.149Z,4.00
2018-01-10T13:23:27.080Z,3.90
2018-01-10T13:25:55.429Z,3.90
2018-01-10T13:28:23.590Z,3.53
2018-01-10T13:30:52.505Z,3.35
2018-01-10T13:33:20.865Z,3.05
2018-01-10T13:35:49.009Z,4.18
2018-01-10T13:38:17.792Z,4.90
2018-01-10T13:40:48.227Z,4.03
2018-01-10T13:43:18.275Z,4.43
2018-01-10T13:45:46.430Z,4.55
2018-01-10T13:48:14.578Z,3.85
2018-01-10T13:50:44.458Z,4.90
2018-01-10T13:53:12.617Z,4.43
2018-01-10T13:55:40.762Z,4.22
2018-01-10T13:58:08.914Z,4.07
2018-01-10T14:00:39.218Z,3.55
2018-01-10T14:03:07.386Z,4.03
2018-01-10T14:05:35.798Z,4.00
2018-01-10T14:08:04.898Z,4.60
2018-01-10T14:10:38.732Z,6.03
2018-01-10T14:13:14.275Z,5.80
2018-01-10T14:15:48.094Z,5.55
2018-01-10T14:18:17.074Z,5.87
2018-01-10T14:21:02.201Z,5.90
2018-01-10T14:23:35.266Z,5.57
2018-01-10T14:26:03.411Z,5.60
2018-01-10T14:34:41.114Z,5.95
2018-01-10T14:37:09.298Z,5.68
2018-01-10T14:39:37.453Z,5.15
2018-01-10T14:42:25.814Z,6.07
2018-01-10T14:44:59.856Z,5.07
2018-01-10T14:47:28.033Z,4.82
2018-01-10T14:50:02.135Z,5.10
2018-01-10T14:52:30.282Z,5.50
2018-01-10T14:55:04.397Z,4.65
2018-01-10T14:57:32.557Z,4.70
2018-01-10T15:00:01.282Z,3.83
2018-01-10T15:02:36.311Z,3.87
2018-01-10T15:05:04.505Z,4.85
2018-01-10T15:07:32.707Z,5.28
2018-01-10T15:10:01.476Z,4.15
2018-01-10T15:12:29.678Z,4.37
2018-01-10T15:14:57.930Z,3.75
2018-01-10T15:17:35.112Z,3.40
2018-01-10T15:20:04.144Z,3.90
2018-01-10T15:22:32.647Z,4.93
2018-01-10T15:25:01.181Z,4.07
2018-01-10T15:27:29.362Z,4.85
2018-01-10T15:29:58.382Z,3.30
2018-01-10T15:32:27.435Z,4.07
2018-01-10T15:34:55.589Z,5.60
2018-01-10T15:37:24.494Z,4.00
2018-01-10T15:39:52.651Z,3.75
2018-01-10T15:42:23.468Z,4.57
2018-01-10T15:44:51.632Z,4.00
2018-01-10T15:47:20.875Z,4.45
2018-01-10T15:49:49.798Z,4.18
2018-01-10T15:52:18.068Z,4.10
2018-01-10T15:54:46.223Z,4.37
2018-01-10T15:57:14.632Z,3.33
2018-01-10T15:59:42.793Z,4.18
2018-01-10T16:02:11.982Z,4.00
2018-01-10T16:04:40.148Z,3.80
2018-01-10T16:07:08.317Z,5.03
2018-01-10T16:09:36.472Z,3.70
2018-01-10T16:12:07.109Z,4.85
2018-01-10T16:14:37.088Z,3.42
2018-01-10T16:17:06.077Z,4.30
2018-01-10T16:19:34.532Z,4.60
2018-01-10T16:22:02.937Z,4.05
2018-01-10T16:24:31.852Z,5.15
2018-01-10T16:27:02.398Z,5.30
2018-01-10T16:29:31.848Z,5.10
2018-01-10T16:32:00.728Z,3.92
2018-01-10T16:34:30.452Z,6.00
2018-01-10T16:37:00.636Z,4.65
2018-01-10T16:39:29.815Z,5.00
2018-01-10T16:41:59.686Z,4.07
2018-01-10T16:44:28.611Z,4.15
2018-01-10T16:46:58.427Z,5.35
2018-01-10T16:49:27.137Z,4.87
2018-01-10T16:54:31.921Z,4.03
2018-01-10T16:57:00.556Z,5.15
2018-01-10T16:59:31.563Z,4.72
2018-01-10T17:01:59.769Z,4.40
2018-01-10T17:04:29.484Z,4.95
2018-01-10T17:06:58.909Z,5.00
2018-01-10T17:09:27.087Z,4.97
2018-01-10T17:11:57.324Z,4.20
2018-01-10T17:14:25.501Z,5.00
2018-01-10T17:16:55.480Z,5.45
2018-01-10T17:19:24.404Z,5.22
2018-01-10T17:21:55.468Z,5.90
2018-01-10T17:24:23.740Z,5.60
2018-01-10T17:26:52.150Z,3.80
2018-01-10T17:29:20.413Z,4.40
2018-01-10T17:31:49.665Z,4.22
2018-01-10T17:34:17.823Z,4.47
2018-01-10T17:36:46.871Z,4.30
2018-01-10T17:39:15.017Z,3.90
2018-01-10T17:41:43.306Z,4.00
2018-01-10T17:44:12.893Z,7.22
2018-01-10T17:46:41.058Z,6.12
2018-01-10T17:49:09.261Z,5.37
2018-01-10T17:51:42.144Z,4.30
2018-01-10T17:54:29.760Z,5.18
2018-01-10T17:56:58.204Z,4.70
2018-01-10T17:59:26.511Z,4.53
2018-01-10T18:01:55.031Z,5.87
2018-01-10T18:04:23.295Z,5.18
2018-01-10T18:06:52.284Z,5.55
2018-01-10T18:09:20.734Z,4.85
2018-01-10T18:11:58.839Z,6.12
2018-01-10T18:14:27.744Z,4.35
2018-01-10T18:16:58.411Z,4.97
2018-01-10T18:19:26.853Z,5.03
2018-01-10T18:21:55.214Z,6.70
2018-01-10T18:24:25.788Z,7.80
2018-01-10T18:26:55.195Z,7.78
2018-01-10T18:29:24.094Z,8.88
2018-01-10T18:31:52.374Z,8.13
2018-01-10T18:34:20.586Z,8.77
2018-01-10T18:36:52.998Z,6.65
2018-01-10T18:39:33.174Z,7.28
2018-01-10T18:42:02.461Z,11.02
2018-01-10T18:44:30.690Z,11.18
2018-01-10T18:46:59.619Z,12.88
2018-01-10T18:49:27.786Z,16.52
2018-01-10T18:51:56.975Z,11.50
2018-01-10T18:54:25.168Z,5.57
2018-01-10T18:56:53.321Z,6.25
2018-01-10T18:59:21.484Z,5.35
2018-01-10T19:01:50.510Z,6.37
2018-01-10T19:04:18.748Z,6.32
2018-01-10T19:06:47.692Z,6.70
2018-01-10T19:09:15.847Z,8.65
2018-01-10T19:11:44.053Z,10.60
2018-01-10T19:14:12.200Z,11.77
2018-01-10T19:16:40.414Z,7.25
2018-01-10T19:19:08.592Z,4.85
2018-01-10T19:21:36.897Z,5.65
2018-01-10T19:24:05.112Z,6.53
2018-01-10T19:26:33.273Z,5.87
2018-01-10T19:29:01.433Z,6.97
2018-01-10T19:31:29.845Z,7.12
2018-01-10T19:33:58.036Z,7.35
2018-01-10T19:36:26.243Z,6.65
2018-01-10T19:38:54.377Z,6.65
2018-01-10T19:41:28.846Z,16.95
2018-01-10T19:43:57.219Z,9.85
2018-01-10T19:46:26.530Z,11.73
2018-01-10T19:48:56.415Z,7.65
2018-01-10T19:51:25.657Z,8.35
2018-01-10T19:53:53.814Z,8.10
2018-01-10T19:56:22.281Z,9.88
2018-01-10T19:58:53.061Z,9.25
2018-01-10T20:01:23.251Z,5.68
2018-01-10T20:03:51.405Z,5.07
2018-01-10T20:06:20.821Z,6.07
2018-01-10T20:08:49.897Z,5.70
2018-01-10T20:11:19.018Z,4.75
2018-01-10T20:13:48.917Z,5.00
2018-01-10T20:16:17.077Z,5.00
2018-01-10T20:18:46.047Z,6.22
2018-01-10T20:21:14.214Z,5.25
2018-01-10T20:23:42.455Z,5.70
2018-01-10T20:26:10.622Z,6.12
2018-01-10T20:28:39.284Z,6.53
2018-01-10T20:31:07.471Z,5.47
2018-01-10T20:33:35.619Z,5.30
2018-01-10T20:36:03.805Z,6.10
2018-01-10T20:38:32.682Z,6.28
2018-01-10T20:41:00.924Z,24.63
2018-01-10T20:43:29.077Z,16.77
2018-01-10T20:45:57.244Z,12.80
2018-01-10T20:48:25.466Z,7.47
2018-01-10T20:50:53.712Z,9.80
2018-01-10T20:53:21.883Z,8.57
2018-01-10T20:55:50.076Z,9.60
2018-01-10T20:58:18.221Z,6.97
2018-01-10T21:00:47.088Z,6.65
2018-01-10T21:03:15.265Z,7.25
2018-01-10T21:05:44.388Z,6.95
2018-01-10T21:08:12.535Z,4.60
2018-01-10T21:10:40.715Z,4.05
2018-01-10T21:13:08.872Z,4.20
2018-01-10T21:15:37.309Z,4.32
2018-01-10T21:18:05.479Z,4.72
2018-01-10T21:29:38.228Z,11.10
2018-01-10T21:35:19.146Z,9.93
2018-01-10T21:37:47.339Z,8.10
2018-01-10T21:40:17.140Z,6.55
2018-01-10T21:42:45.321Z,8.70
2018-01-10T21:45:13.711Z,4.82
2018-01-10T21:47:44.377Z,4.25
2018-01-10T21:50:12.524Z,3.55
2018-01-10T21:52:42.115Z,3.25
2018-01-10T21:55:11.298Z,2.95
2018-01-10T21:57:39.469Z,3.28
2018-01-10T22:00:07.714Z,3.85
2018-01-10T22:02:35.878Z,3.00
2018-01-10T22:05:04.080Z,4.43
2018-01-10T22:07:32.237Z,6.37
2018-01-10T22:10:00.388Z,10.70
2018-01-10T22:12:28.743Z,11.55
2018-01-10T22:14:56.953Z,11.18
2018-01-10T22:17:26.255Z,9.80
2018-01-10T22:19:55.011Z,8.20
2018-01-10T22:22:24.030Z,6.60
2018-01-10T22:24:52.198Z,8.57
2018-01-10T22:27:21.378Z,8.73
2018-01-10T22:29:50.287Z,7.03
2018-01-10T22:32:20.469Z,7.50
2018-01-10T22:34:48.913Z,9.82
2018-01-10T22:37:17.171Z,6.35
2018-01-10T22:39:45.600Z,4.25
2018-01-10T22:42:13.772Z,3.97
2018-01-10T22:44:42.456Z,3.85
2018-01-10T22:47:10.608Z,4.22
2018-01-10T22:49:40.033Z,3.35
2018-01-10T22:52:20.658Z,3.60
2018-01-10T22:54:49.324Z,2.90
2018-01-10T22:57:18.259Z,3.20
2018-01-10T22:59:46.426Z,3.08
2018-01-10T23:02:14.692Z,3.30
2018-01-10T23:04:42.956Z,3.40
2018-01-10T23:07:12.030Z,4.60
2018-01-10T23:09:40.210Z,7.82
2018-01-10T23:12:09.524Z,11.50
2018-01-10T23:14:37.826Z,10.20
2018-01-10T23:17:06.083Z,9.70
2018-01-10T23:19:35.030Z,8.85
2018-01-10T23:22:03.173Z,6.90
2018-01-10T23:24:31.332Z,7.32
2018-01-10T23:26:59.510Z,7.87
2018-01-10T23:29:27.785Z,6.65
2018-01-10T23:31:56.030Z,6.65
2018-01-10T23:34:24.950Z,7.87
2018-01-10T23:36:53.120Z,9.57
2018-01-10T23:39:21.263Z,8.38
2018-01-10T23:41:50.294Z,8.43
2018-01-10T23:44:18.459Z,6.18
2018-01-10T23:46:47.304Z,5.85
2018-01-10T23:49:15.516Z,6.37
2018-01-10T23:51:43.665Z,6.65
2018-01-10T23:54:12.610Z,5.90
2018-01-10T23:56:40.775Z,6.97
2018-01-10T23:59:09.161Z,5.40
